Time;durP1;ratioP1;P1;durP2;ratioP2;P2;SDS_P1;SDS_P2;PMS_P1;PMS_P2;Temp;Humidity;BMP_temperature;BMP_pressure;BME280_temperature;BME280_humidity;BME280_pressure;Samples;Min_cycle;Max_cycle;Signal;HPM_P1;HPM_P2
2022/03/09 00:01:57;;;;;;;11.65;5.65;;;;;;;2.48;70.46;101841.38;5046795;28;20076;-83
2022/03/09 00:04:22;;;;;;;14.73;6.57;;;;;;;2.51;71.08;101857.47;5050641;28;20021;-84
2022/03/09 00:06:48;;;;;;;20.75;6.63;;;;;;;2.62;71.27;101855.34;5048514;28;20025;-86
2022/03/09 00:09:16;;;;;;;12.00;5.97;;;;;;;2.62;69.69;101863.44;5064731;28;20037;-84
2022/03/09 00:11:43;;;;;;;13.38;6.05;;;;;;;2.49;69.22;101824.22;5047510;28;20043;-84
2022/03/09 00:14:08;;;;;;;10.38;6.60;;;;;;;2.49;69.96;101833.22;5046607;28;20499;-83
2022/03/09 00:16:34;;;;;;;10.70;6.53;;;;;;;2.49;71.67;101853.94;5045277;28;20060;-82
2022/03/09 00:19:00;;;;;;;11.65;6.38;;;;;;;2.46;72.53;101854.94;5057736;28;20033;-83
2022/03/09 00:21:25;;;;;;;10.77;6.35;;;;;;;2.35;72.82;101865.16;5078815;28;20044;-83
2022/03/09 00:23:51;;;;;;;25.00;7.18;;;;;;;2.28;72.78;101864.44;5077158;28;20370;-85
2022/03/09 00:26:16;;;;;;;10.48;6.50;;;;;;;2.25;72.74;101874.44;5045925;28;20029;-84
2022/03/09 00:28:42;;;;;;;17.95;6.68;;;;;;;1.99;75.08;101867.97;5047399;28;20032;-84
2022/03/09 00:31:08;;;;;;;14.63;7.65;;;;;;;1.73;77.18;101847.94;5055038;28;20408;-84
2022/03/09 00:33:34;;;;;;;17.77;6.90;;;;;;;1.73;79.43;101880.31;5063006;28;20040;-84
2022/03/09 00:36:00;;;;;;;11.43;6.93;;;;;;;1.60;79.18;101876.16;5062149;28;20551;-83
2022/03/09 00:38:25;;;;;;;16.30;7.25;;;;;;;1.65;78.92;101874.22;5061860;28;20066;-82
2022/03/09 00:40:51;;;;;;;17.17;7.97;;;;;;;1.54;80.93;101881.72;5045563;28;20469;-83
2022/03/09 00:43:17;;;;;;;18.00;7.60;;;;;;;1.56;81.18;101878.06;5078111;28;20044;-84
2022/03/09 00:45:43;;;;;;;15.45;8.20;;;;;;;1.51;81.32;101871.91;5046089;28;20033;-83
2022/03/09 00:48:09;;;;;;;18.75;7.85;;;;;;;1.41;82.97;101876.63;5063352;28;20116;-84
2022/03/09 00:50:35;;;;;;;17.65;7.78;;;;;;;1.35;82.14;101875.91;5046018;28;20053;-84
2022/03/09 00:53:00;;;;;;;17.23;7.88;;;;;;;1.41;81.87;101865.84;5062319;28;20048;-83
2022/03/09 00:55:26;;;;;;;20.83;8.43;;;;;;;1.58;79.29;101873.50;5038289;28;20093;-83
2022/03/09 00:57:51;;;;;;;23.67;8.63;;;;;;;1.59;79.35;101851.00;5044043;28;20119;-83
2022/03/09 01:00:17;;;;;;;18.98;7.95;;;;;;;1.68;77.91;101862.47;5064469;28;20060;-84
2022/03/09 01:02:44;;;;;;;17.20;7.90;;;;;;;1.70;77.02;101863.31;5064532;28;20048;-83
2022/03/09 01:05:11;;;;;;;21.23;7.72;;;;;;;1.72;77.89;101873.16;5045924;28;20035;-84
2022/03/09 01:07:37;;;;;;;15.63;7.90;;;;;;;1.76;77.19;101871.28;5057354;28;20040;-83
2022/03/09 01:10:04;;;;;;;18.08;8.02;;;;;;;1.67;77.06;101868.78;5062604;28;20033;-83
2022/03/09 01:12:30;;;;;;;16.23;7.75;;;;;;;1.58;78.80;101878.91;5080644;28;20055;-84
2022/03/09 01:14:56;;;;;;;21.00;8.73;;;;;;;1.33;81.96;101872.31;5042094;28;20360;-84
2022/03/09 01:17:22;;;;;;;22.13;9.05;;;;;;;0.85;84.04;101842.00;5042018;28;20044;-85
2022/03/09 01:19:48;;;;;;;20.00;8.63;;;;;;;1.27;81.96;101885.03;5025736;28;20029;-85
2022/03/09 01:22:15;;;;;;;17.42;8.43;;;;;;;1.23;83.06;101882.44;5050271;28;20088;-84
2022/03/09 01:24:41;;;;;;;24.73;8.93;;;;;;;0.98;83.46;101857.88;5061583;28;20037;-85
2022/03/09 01:27:07;;;;;;;22.15;9.10;;;;;;;0.82;85.26;101852.84;5046650;28;20112;-84
2022/03/09 01:29:32;;;;;;;22.60;8.38;;;;;;;1.16;82.62;101873.63;5046313;28;20047;-84
2022/03/09 01:31:58;;;;;;;15.10;8.52;;;;;;;1.21;83.23;101873.50;5062447;28;20030;-84
2022/03/09 01:34:23;;;;;;;15.27;8.25;;;;;;;1.36;79.82;101865.06;5061940;28;20036;-84
2022/03/09 01:36:49;;;;;;;16.92;8.27;;;;;;;1.32;80.56;101855.25;5062289;28;20033;-84
2022/03/09 01:39:15;;;;;;;20.65;8.95;;;;;;;1.37;80.22;101861.44;5061652;28;20054;-84
2022/03/09 01:41:40;;;;;;;17.45;8.18;;;;;;;1.52;78.33;101861.97;5079317;28;20035;-83
2022/03/09 01:44:14;;;;;;;17.42;8.35;;;;;;;1.55;78.50;101856.50;5080615;28;20020;-83
2022/03/09 01:46:40;;;;;;;26.00;9.63;;;;;;;1.57;78.27;101855.53;5073365;28;20177;-84
2022/03/09 01:49:07;;;;;;;19.55;8.52;;;;;;;1.51;78.20;101850.31;5055579;28;20376;-84
2022/03/09 01:51:38;;;;;;;16.52;7.82;;;;;;;1.52;77.55;101841.25;5065526;28;20130;-83
2022/03/09 01:54:04;;;;;;;20.65;8.40;;;;;;;1.50;78.38;101844.94;5061769;28;20030;-82
2022/03/09 01:56:30;;;;;;;20.80;7.88;;;;;;;1.65;76.54;101847.25;5049189;28;20029;-83
2022/03/09 01:58:56;;;;;;;19.83;7.85;;;;;;;1.64;76.99;101846.38;5046891;28;20048;-83
2022/03/09 02:01:22;;;;;;;17.50;8.15;;;;;;;1.57;76.15;101833.94;5060202;28;20025;-84
2022/03/09 02:03:47;;;;;;;18.70;7.65;;;;;;;1.44;76.44;101810.88;5048722;28;20049;-83
2022/03/09 02:06:13;;;;;;;21.15;7.95;;;;;;;1.58;77.26;101843.81;5065494;28;20021;-83
2022/03/09 02:11:24;;;;;;;12.93;7.15;;;;;;;1.40;77.47;101830.81;5066711;28;20044;-83
2022/03/09 02:13:50;;;;;;;14.73;7.53;;;;;;;1.41;77.00;101830.75;5066159;28;20060;-84
2022/03/09 02:16:16;;;;;;;15.73;7.32;;;;;;;1.44;77.77;101840.56;5049126;28;20041;-84
2022/03/09 02:18:42;;;;;;;14.05;7.38;;;;;;;1.34;78.23;101834.53;5046011;28;20030;-84
2022/03/09 02:21:10;;;;;;;16.88;7.75;;;;;;;1.49;76.36;101841.34;5047181;28;20025;-84
2022/03/09 02:23:39;;;;;;;19.08;7.82;;;;;;;1.44;76.91;101837.88;5065831;28;20035;-83
2022/03/09 02:26:04;;;;;;;23.98;7.07;;;;;;;1.31;76.98;101822.94;5063799;28;20037;-83
2022/03/09 02:28:30;;;;;;;17.58;8.73;;;;;;;1.44;76.93;101838.78;5064417;28;20033;-84
2022/03/09 02:30:57;;;;;;;22.45;7.82;;;;;;;1.43;77.07;101852.31;5066758;28;20040;-83
2022/03/09 02:33:23;;;;;;;13.13;7.50;;;;;;;1.17;77.46;101816.06;5066177;28;20033;-84
2022/03/09 02:35:51;;;;;;;20.83;8.10;;;;;;;1.32;77.36;101844.47;5032737;28;20044;-83
2022/03/09 02:38:17;;;;;;;13.68;7.00;;;;;;;0.96;78.35;101813.88;5065744;28;20115;-82
2022/03/09 02:40:42;;;;;;;18.35;7.68;;;;;;;1.26;77.98;101844.59;5046060;28;20424;-84
2022/03/09 02:43:08;;;;;;;13.88;7.70;;;;;;;1.30;77.85;101846.31;5049777;28;20025;-84
2022/03/09 02:45:33;;;;;;;20.40;8.20;;;;;;;1.25;76.99;101834.75;5050117;28;20032;-84
2022/03/09 02:47:59;;;;;;;37.35;8.30;;;;;;;1.26;77.18;101845.53;5065289;28;20032;-84
2022/03/09 02:50:24;;;;;;;18.77;7.88;;;;;;;1.26;77.88;101844.59;5083360;28;20032;-83
2022/03/09 02:52:50;;;;;;;12.63;6.72;;;;;;;1.34;77.76;101842.63;5047660;28;20033;-82
2022/03/09 02:55:16;;;;;;;16.85;7.63;;;;;;;1.04;78.53;101822.69;5049012;28;20099;-82
2022/03/09 02:57:42;;;;;;;14.30;7.35;;;;;;;1.04;78.17;101809.19;5049446;28;20032;-84
2022/03/09 03:00:09;;;;;;;12.85;6.95;;;;;;;1.09;78.25;101826.16;5041148;28;20025;-84
2022/03/09 03:02:36;;;;;;;14.73;6.80;;;;;;;1.16;77.66;101840.38;5082752;28;20059;-85
2022/03/09 03:05:02;;;;;;;19.67;7.35;;;;;;;1.05;79.01;101832.53;5045322;28;20112;-85
2022/03/09 03:07:27;;;;;;;15.52;7.30;;;;;;;0.98;79.29;101831.78;5045979;28;20036;-86
2022/03/09 03:09:52;;;;;;;15.80;7.90;;;;;;;0.89;80.30;101819.41;5030896;28;20093;-84
2022/03/09 03:12:18;;;;;;;16.58;7.88;;;;;;;0.90;80.39;101821.19;5065827;28;20029;-83
2022/03/09 03:14:43;;;;;;;22.17;7.22;;;;;;;0.97;79.13;101829.13;5081151;28;20033;-84
2022/03/09 03:17:09;;;;;;;14.90;7.20;;;;;;;0.97;78.18;101811.16;5063199;28;20695;-83
2022/03/09 03:19:35;;;;;;;15.65;8.07;;;;;;;0.98;79.17;101821.00;5045766;28;20108;-85
2022/03/09 03:22:00;;;;;;;16.95;7.43;;;;;;;0.84;79.29;101821.34;5040332;28;20037;-84
2022/03/09 03:24:28;;;;;;;13.48;6.93;;;;;;;0.82;79.60;101815.09;5048284;28;20036;-83
2022/03/09 03:26:54;;;;;;;14.10;7.68;;;;;;;0.76;79.51;101800.88;5081310;28;20025;-84
2022/03/09 03:29:19;;;;;;;19.95;7.57;;;;;;;0.79;79.87;101814.25;5047558;28;20057;-85
2022/03/09 03:31:45;;;;;;;14.15;7.20;;;;;;;0.63;79.72;101792.19;5063860;28;20056;-85
2022/03/09 03:34:10;;;;;;;18.27;7.85;;;;;;;0.83;80.83;101824.94;5047129;28;20044;-83
2022/03/09 03:36:36;;;;;;;22.60;8.20;;;;;;;0.66;80.85;101816.38;5061302;28;20133;-84
2022/03/09 03:39:03;;;;;;;14.95;8.05;;;;;;;0.67;81.38;101823.50;5047148;28;20104;-84
2022/03/09 03:41:28;;;;;;;13.45;6.65;;;;;;;0.66;81.37;101814.56;5064515;28;20097;-85
2022/03/09 03:43:54;;;;;;;13.18;6.88;;;;;;;0.72;80.77;101832.38;5063653;28;20090;-84
2022/03/09 03:46:19;;;;;;;11.32;6.65;;;;;;;0.70;80.13;101827.03;5063479;28;20111;-83
2022/03/09 03:48:45;;;;;;;17.08;7.75;;;;;;;0.61;80.18;101818.25;5049144;28;20130;-83
2022/03/09 03:51:10;;;;;;;14.77;7.07;;;;;;;0.66;80.90;101827.16;5064114;28;20079;-85
2022/03/09 03:53:36;;;;;;;17.15;7.35;;;;;;;0.44;80.46;101797.09;5046734;28;20045;-83
2022/03/09 03:56:01;;;;;;;15.45;7.20;;;;;;;0.52;81.39;101825.63;5079844;28;20088;-84
2022/03/09 03:58:27;;;;;;;15.50;7.40;;;;;;;0.37;81.55;101804.41;5063369;28;20449;-84
2022/03/09 04:00:53;;;;;;;17.35;6.95;;;;;;;0.29;83.17;101806.38;5064453;28;20033;-85
2022/03/09 04:03:18;;;;;;;29.92;8.38;;;;;;;0.32;84.35;101828.75;5080113;28;20381;-84
2022/03/09 04:05:45;;;;;;;13.32;6.55;;;;;;;0.26;83.45;101798.38;5079561;28;20044;-84
2022/03/09 04:08:10;;;;;;;15.93;7.50;;;;;;;0.30;84.16;101822.50;5063830;28;20033;-84
2022/03/09 04:10:36;;;;;;;17.65;6.68;;;;;;;0.22;83.53;101799.38;5064254;28;20076;-84
2022/03/09 04:13:04;;;;;;;17.10;8.15;;;;;;;0.38;83.01;101826.84;5064758;28;20025;-85
2022/03/09 04:15:33;;;;;;;16.17;7.18;;;;;;;0.26;84.67;101818.09;5064708;28;20040;-83
2022/03/09 04:17:59;;;;;;;15.57;7.18;;;;;;;0.29;83.30;101818.03;5064326;28;20036;-84
2022/03/09 04:20:26;;;;;;;15.80;6.97;;;;;;;0.32;83.06;101823.34;5080365;28;20061;-84
2022/03/09 04:22:54;;;;;;;11.68;6.65;;;;;;;0.33;83.34;101816.19;5065122;28;20032;-84
2022/03/09 04:25:19;;;;;;;14.57;6.93;;;;;;;0.27;82.95;101816.31;5046411;28;20032;-84
2022/03/09 04:27:45;;;;;;;19.65;6.82;;;;;;;0.10;83.90;101808.56;5063407;28;20029;-84
2022/03/09 04:30:11;;;;;;;12.75;6.78;;;;;;;0.10;84.04;101817.53;5065341;28;20029;-85
2022/03/09 04:32:37;;;;;;;12.57;6.45;;;;;;;0.00;84.47;101794.41;5046487;28;20025;-82
2022/03/09 04:35:04;;;;;;;16.67;7.68;;;;;;;0.02;85.73;101826.66;5080632;28;20120;-82
2022/03/09 04:37:30;;;;;;;14.52;7.18;;;;;;;-0.16;86.42;101830.59;5063574;28;20032;-82
2022/03/09 04:40:00;;;;;;;13.88;7.03;;;;;;;-0.32;87.85;101833.59;5046317;28;20455;-84
2022/03/09 04:42:31;;;;;;;17.38;7.70;;;;;;;-0.45;89.57;101800.63;5079746;28;20092;-83
2022/03/09 04:44:58;;;;;;;21.25;7.63;;;;;;;-0.24;91.16;101834.31;5027352;28;20033;-83
2022/03/09 04:47:23;;;;;;;18.30;7.60;;;;;;;-0.46;92.25;101806.03;5063428;28;20036;-84
2022/03/09 04:49:52;;;;;;;14.05;7.85;;;;;;;-0.46;92.90;101830.25;5043880;28;20029;-85
2022/03/09 04:52:19;;;;;;;18.80;8.95;;;;;;;-0.47;93.93;101823.09;5042042;28;20377;-83
2022/03/09 04:54:45;;;;;;;22.33;11.02;;;;;;;-0.46;93.45;101806.03;5043577;28;20040;-83
2022/03/09 04:57:10;;;;;;;15.27;7.82;;;;;;;-0.38;93.92;101833.69;5040176;28;20033;-83
2022/03/09 04:59:36;;;;;;;15.32;7.88;;;;;;;-0.53;94.96;101826.78;5046066;28;20008;-85
2022/03/09 05:02:01;;;;;;;20.55;8.32;;;;;;;-0.52;95.57;101833.06;5062970;28;20032;-83
2022/03/09 05:04:27;;;;;;;19.70;9.30;;;;;;;-0.62;95.56;101813.50;5061744;28;20030;-83
2022/03/09 05:06:52;;;;;;;18.52;8.00;;;;;;;-0.48;95.32;101826.69;5063028;28;20362;-83
2022/03/09 05:09:18;;;;;;;19.83;8.60;;;;;;;-0.65;94.78;101809.06;5046080;28;20029;-83
2022/03/09 05:11:43;;;;;;;25.00;8.20;;;;;;;-0.47;94.20;101828.47;5064297;28;20093;-84
2022/03/09 05:14:10;;;;;;;20.73;7.97;;;;;;;-0.42;93.77;101837.34;5063552;28;20396;-85
2022/03/09 05:16:36;;;;;;;18.70;9.45;;;;;;;-0.54;95.44;101841.16;5046175;28;20025;-83
2022/03/09 05:19:02;;;;;;;19.77;8.10;;;;;;;-0.66;95.90;101842.22;5064275;28;20021;-83
2022/03/09 05:21:28;;;;;;;18.98;8.30;;;;;;;-0.80;95.59;101810.19;5082506;28;20047;-84
2022/03/09 05:23:53;;;;;;;14.23;8.15;;;;;;;-0.63;95.81;101826.03;5047045;28;20029;-84
2022/03/09 05:26:19;;;;;;;18.27;8.73;;;;;;;-0.59;96.55;101832.25;5060278;28;20048;-84
2022/03/09 05:28:44;;;;;;;13.88;8.45;;;;;;;-0.69;95.91;101834.19;5068056;28;20062;-83
2022/03/09 05:31:10;;;;;;;18.70;8.68;;;;;;;-0.63;96.41;101850.25;5079740;28;20847;-83
2022/03/09 05:33:35;;;;;;;16.52;8.40;;;;;;;-0.66;97.75;101847.59;5046328;28;20077;-84
2022/03/09 05:36:01;;;;;;;19.20;8.20;;;;;;;-0.65;97.29;101849.38;5050359;28;20096;-82
2022/03/09 05:38:27;;;;;;;20.70;8.50;;;;;;;-0.47;94.53;101844.63;5084603;28;20056;-83
2022/03/09 05:40:52;;;;;;;21.77;8.20;;;;;;;-0.44;92.63;101841.88;5066765;28;20040;-83
2022/03/09 05:43:18;;;;;;;14.45;8.05;;;;;;;-0.68;95.02;101818.97;5049969;28;20080;-83
2022/03/09 05:45:44;;;;;;;15.95;8.25;;;;;;;-0.82;95.39;101809.34;5062946;28;20452;-83
2022/03/09 05:48:10;;;;;;;19.25;8.15;;;;;;;-0.86;95.05;101812.09;5062880;28;20063;-84
2022/03/09 05:50:36;;;;;;;18.05;8.52;;;;;;;-0.68;95.36;101859.31;5082091;28;20072;-85
2022/03/09 05:53:03;;;;;;;16.33;8.48;;;;;;;-0.81;94.86;101829.03;5051623;28;20055;-83
2022/03/09 05:55:28;;;;;;;23.13;8.93;;;;;;;-0.94;95.37;101814.91;5058142;28;20017;-84
2022/03/09 05:57:54;;;;;;;16.85;7.90;;;;;;;-0.81;96.82;101832.59;5067035;28;20085;-85
2022/03/09 06:00:19;;;;;;;27.92;8.85;;;;;;;-0.82;96.96;101840.69;5066973;28;20021;-81
2022/03/09 06:02:45;;;;;;;23.50;8.55;;;;;;;-0.68;95.65;101856.63;5048641;28;20369;-83
2022/03/09 06:05:11;;;;;;;20.20;9.18;;;;;;;-0.62;96.27;101872.66;5045948;28;20029;-81
2022/03/09 06:07:37;;;;;;;15.27;7.93;;;;;;;-0.49;93.94;101865.25;5071126;28;20029;-82
2022/03/09 06:10:03;;;;;;;17.25;8.40;;;;;;;-0.82;95.27;101829.94;5064998;28;20033;-83
2022/03/09 06:12:28;;;;;;;20.40;7.53;;;;;;;-0.76;94.57;101837.91;5058440;28;20021;-85
2022/03/09 06:14:55;;;;;;;15.77;7.53;;;;;;;-0.53;94.32;101867.13;5065334;28;20033;-81
2022/03/09 06:17:21;;;;;;;20.35;7.97;;;;;;;-0.63;94.28;101865.50;5050264;28;20382;-81
2022/03/09 06:19:46;;;;;;;20.20;7.93;;;;;;;-0.50;93.87;101872.44;5065737;28;20055;-83
2022/03/09 06:22:12;;;;;;;30.08;9.30;;;;;;;-0.46;93.92;101884.94;5058541;28;20078;-84
2022/03/09 06:24:37;;;;;;;25.85;9.50;;;;;;;-0.67;96.08;101883.50;5062852;28;20039;-82
2022/03/09 06:27:03;;;;;;;16.50;8.88;;;;;;;-0.63;97.37;101882.50;5057921;28;20029;-83
2022/03/09 06:29:29;;;;;;;17.15;8.07;;;;;;;-0.57;96.75;101881.53;5066163;28;20059;-84
2022/03/09 06:31:55;;;;;;;23.08;9.27;;;;;;;-0.64;97.08;101867.31;5067508;28;20064;-82
2022/03/09 06:34:21;;;;;;;24.88;8.20;;;;;;;-0.45;95.35;101889.41;5064002;28;20507;-82
2022/03/09 06:36:46;;;;;;;23.15;8.52;;;;;;;-0.29;95.61;101894.53;5053500;28;20018;-81
2022/03/09 06:39:14;;;;;;;23.67;9.50;;;;;;;-0.26;95.46;101889.09;5057011;28;20033;-81
2022/03/09 06:41:40;;;;;;;23.08;8.35;;;;;;;-0.20;94.85;101881.81;5062070;28;20024;-83
2022/03/09 06:44:06;;;;;;;25.45;9.00;;;;;;;0.07;92.76;101884.91;5065964;28;20041;-82
2022/03/09 06:46:32;;;;;;;18.83;7.70;;;;;;;-0.14;89.91;101836.84;5063554;28;20105;-81
2022/03/09 06:48:57;;;;;;;22.58;8.05;;;;;;;0.28;89.30;101894.38;5065165;28;20017;-83
2022/03/09 06:51:23;;;;;;;16.73;6.88;;;;;;;0.47;89.28;101897.56;5063417;28;20078;-84
2022/03/09 06:53:49;;;;;;;17.48;7.45;;;;;;;0.46;88.75;101862.59;5080087;28;20044;-84
2022/03/09 06:56:16;;;;;;;16.58;6.68;;;;;;;0.96;85.08;101898.34;5047023;28;20048;-84
2022/03/09 06:58:42;;;;;;;16.17;7.55;;;;;;;1.19;84.19;101878.94;5058304;28;20104;-83
2022/03/09 07:01:07;;;;;;;15.50;6.43;;;;;;;1.71;81.21;101892.09;5066456;28;20028;-84
2022/03/09 07:03:33;;;;;;;18.92;7.47;;;;;;;1.99;79.55;101900.38;5082313;28;20517;-84
2022/03/09 07:05:58;;;;;;;12.40;6.82;;;;;;;1.92;77.51;101905.03;5066906;28;20044;-84
2022/03/09 07:08:26;;;;;;;16.88;7.10;;;;;;;2.14;77.41;101902.66;5053564;28;20029;-84
2022/03/09 07:10:52;;;;;;;14.73;6.65;;;;;;;2.17;76.53;101916.06;5065890;28;20033;-84
2022/03/09 07:13:18;;;;;;;20.35;6.90;;;;;;;2.38;77.11;101911.91;5064063;28;20736;-83
2022/03/09 07:15:43;;;;;;;16.80;6.57;;;;;;;2.38;75.87;101911.03;5073476;28;20071;-84
2022/03/09 07:18:09;;;;;;;20.02;7.15;;;;;;;2.49;75.99;101913.41;5067152;28;20037;-86
2022/03/09 07:20:35;;;;;;;14.63;7.13;;;;;;;2.45;75.52;101917.13;5059649;28;20037;-85
2022/03/09 07:23:00;;;;;;;19.25;7.60;;;;;;;2.44;74.13;101918.94;5064308;28;20059;-83
2022/03/09 07:25:26;;;;;;;16.45;7.30;;;;;;;2.83;73.14;101921.44;5055858;28;20025;-84
2022/03/09 07:27:52;;;;;;;15.90;6.82;;;;;;;3.00;73.19;101936.25;5040578;28;20036;-84
2022/03/09 07:30:17;;;;;;;16.10;6.68;;;;;;;3.00;73.45;101936.25;5063165;28;20050;-84
2022/03/09 07:32:43;;;;;;;16.83;6.53;;;;;;;3.06;72.76;101933.38;5062231;28;20059;-85
2022/03/09 07:35:10;;;;;;;21.38;7.80;;;;;;;2.97;72.65;101926.44;5046387;28;20037;-84
2022/03/09 07:37:36;;;;;;;17.10;7.20;;;;;;;3.08;73.98;101943.25;5045148;28;20029;-85
2022/03/09 07:40:04;;;;;;;15.13;7.68;;;;;;;3.01;72.64;101929.94;5045993;28;20012;-84
2022/03/09 07:42:29;;;;;;;19.02;7.38;;;;;;;3.02;71.98;101945.25;5053641;28;20041;-84
2022/03/09 07:44:55;;;;;;;11.23;6.40;;;;;;;3.12;72.36;101936.78;5040745;28;20056;-85
2022/03/09 07:47:20;;;;;;;21.75;7.47;;;;;;;3.28;71.76;101944.41;5044716;28;20025;-82
2022/03/09 07:49:46;;;;;;;20.00;7.53;;;;;;;3.33;72.45;101942.47;5060034;28;20033;-85
2022/03/09 07:52:11;;;;;;;21.60;7.55;;;;;;;3.43;70.15;101921.41;5062534;28;20039;-84
2022/03/09 07:54:37;;;;;;;28.30;7.22;;;;;;;3.69;71.32;101947.66;5061161;28;20048;-85
2022/03/09 07:57:03;;;;;;;15.68;7.43;;;;;;;3.72;69.87;101935.81;5044105;28;20041;-83
2022/03/09 07:59:29;;;;;;;20.30;7.40;;;;;;;3.72;70.41;101941.22;5041856;28;20120;-84
2022/03/09 08:01:55;;;;;;;13.82;7.55;;;;;;;3.72;70.41;101933.97;5043257;28;20052;-84
2022/03/09 08:04:22;;;;;;;15.70;7.32;;;;;;;4.05;70.57;101947.38;5077873;28;20049;-84
2022/03/09 08:06:51;;;;;;;12.02;7.00;;;;;;;4.34;69.01;101940.03;5062682;28;20083;-83
2022/03/09 08:09:18;;;;;;;17.20;7.10;;;;;;;4.30;67.85;101936.53;5062340;28;20400;-82
2022/03/09 08:11:44;;;;;;;26.25;7.25;;;;;;;4.27;69.29;101950.19;5078912;28;20033;-82
2022/03/09 08:14:11;;;;;;;15.02;7.90;;;;;;;4.46;68.64;101941.41;5067446;28;20072;-86
2022/03/09 08:16:37;;;;;;;23.70;8.45;;;;;;;4.65;68.09;101952.47;5061614;28;20032;-83
2022/03/09 08:19:03;;;;;;;21.10;7.75;;;;;;;4.90;65.33;101949.72;5061740;28;20542;-82
2022/03/09 08:21:30;;;;;;;19.20;7.93;;;;;;;5.15;64.96;101946.97;5061753;28;20054;-82
2022/03/09 08:23:55;;;;;;;18.08;7.40;;;;;;;5.24;63.67;101941.16;5043018;28;20052;-81
2022/03/09 08:26:22;;;;;;;17.58;7.75;;;;;;;5.48;62.98;101947.47;5055647;28;20028;-83
2022/03/09 08:28:48;;;;;;;14.73;7.53;;;;;;;5.57;63.28;101945.31;5029203;28;20043;-83
2022/03/09 08:31:14;;;;;;;19.42;7.90;;;;;;;6.04;60.16;101956.09;5063470;28;20076;-83
2022/03/09 08:33:40;;;;;;;21.05;7.25;;;;;;;5.64;62.26;101946.81;5046311;28;20040;-84
2022/03/09 08:36:05;;;;;;;16.27;7.75;;;;;;;6.20;60.87;101954.50;5062332;28;20446;-83
2022/03/09 08:38:31;;;;;;;15.25;8.27;;;;;;;6.29;61.36;101955.03;5063887;28;20036;-83
2022/03/09 08:40:57;;;;;;;16.60;8.23;;;;;;;6.57;60.21;101966.47;5045314;28;20029;-84
2022/03/09 08:43:22;;;;;;;17.98;8.45;;;;;;;7.02;58.82;101963.56;5079280;28;20067;-84
2022/03/09 08:45:52;;;;;;;15.57;7.68;;;;;;;7.27;58.67;101957.88;5061280;28;20037;-83
2022/03/09 08:48:17;;;;;;;12.82;7.55;;;;;;;7.76;55.32;101951.88;5078527;28;20108;-84
2022/03/09 08:50:43;;;;;;;16.67;8.00;;;;;;;7.49;55.14;101947.72;5078230;28;20033;-83
2022/03/09 08:53:08;;;;;;;15.32;7.63;;;;;;;7.44;56.33;101946.16;5079175;28;20041;-82
2022/03/09 08:55:36;;;;;;;20.55;7.57;;;;;;;7.76;55.63;101951.88;5063263;28;20080;-83
2022/03/09 08:58:02;;;;;;;18.20;7.90;;;;;;;8.07;54.88;101953.94;5048712;28;20040;-83
2022/03/09 09:00:27;;;;;;;14.45;7.93;;;;;;;7.80;54.26;101956.19;5058188;28;20108;-83
2022/03/09 09:02:53;;;;;;;14.80;8.40;;;;;;;8.23;53.24;101944.00;5066609;28;20069;-82
2022/03/09 09:05:19;;;;;;;16.83;7.95;;;;;;;8.30;53.90;101950.03;5049342;28;20061;-84
2022/03/09 09:07:45;;;;;;;17.45;8.32;;;;;;;8.82;52.20;101951.84;5048589;28;20033;-82
2022/03/09 09:10:10;;;;;;;14.88;7.93;;;;;;;8.60;50.57;101954.88;5062247;28;20041;-85
2022/03/09 09:12:37;;;;;;;13.88;8.25;;;;;;;8.73;50.01;101946.91;5058136;28;20033;-83
2022/03/09 09:15:03;;;;;;;16.52;8.57;;;;;;;9.20;50.56;101954.34;5048397;28;20057;-83
2022/03/09 09:17:28;;;;;;;15.27;8.32;;;;;;;9.52;49.33;101946.16;5082922;28;20132;-85
2022/03/09 09:19:54;;;;;;;14.02;7.75;;;;;;;9.44;50.54;101945.72;5075785;28;20033;-82
2022/03/09 09:22:20;;;;;;;17.05;8.82;;;;;;;9.66;48.74;101949.00;5083771;28;20029;-85
2022/03/09 09:24:45;;;;;;;14.35;8.00;;;;;;;9.81;47.47;101939.03;5057213;28;20091;-82
2022/03/09 09:27:11;;;;;;;19.13;9.43;;;;;;;9.87;47.85;101954.19;5066140;28;20032;-83
2022/03/09 09:29:36;;;;;;;16.10;8.80;;;;;;;9.71;48.36;101925.00;5049315;28;20043;-82
2022/03/09 09:32:02;;;;;;;15.80;8.30;;;;;;;9.87;48.24;101948.72;5082345;28;20037;-82
2022/03/09 09:34:28;;;;;;;15.35;9.32;;;;;;;10.04;44.69;101954.06;5065816;28;20043;-82
2022/03/09 09:36:54;;;;;;;16.25;8.95;;;;;;;10.08;45.58;101952.94;5064692;28;20451;-83
2022/03/09 09:39:22;;;;;;;20.20;9.27;;;;;;;9.87;44.97;101949.63;5061346;28;20033;-81
2022/03/09 09:41:52;;;;;;;20.73;9.52;;;;;;;9.89;44.89;101960.47;5045734;28;20033;-83
2022/03/09 09:44:20;;;;;;;19.10;9.15;;;;;;;10.46;43.69;101958.00;5061058;28;20037;-83
2022/03/09 09:46:47;;;;;;;19.92;9.75;;;;;;;10.53;43.88;101954.88;5081263;28;20029;-83
2022/03/09 09:49:15;;;;;;;16.20;8.70;;;;;;;10.15;43.92;101960.75;5065971;28;20075;-83
2022/03/09 09:51:42;;;;;;;18.98;9.02;;;;;;;10.09;45.45;101951.94;5061649;28;20030;-83
2022/03/09 09:54:08;;;;;;;19.23;9.30;;;;;;;10.17;45.03;101958.84;5064478;28;20483;-83
2022/03/09 09:56:41;;;;;;;15.07;9.45;;;;;;;10.27;44.18;101957.31;5050214;28;20029;-83
2022/03/09 09:59:07;;;;;;;17.02;9.02;;;;;;;10.48;44.26;101947.81;5031229;28;20206;-83
2022/03/09 10:01:35;;;;;;;15.57;9.18;;;;;;;10.28;44.34;101943.53;5044678;28;20544;-82
2022/03/09 10:04:01;;;;;;;17.00;9.55;;;;;;;10.42;44.09;101937.22;5061935;28;20045;-83
2022/03/09 10:06:27;;;;;;;22.00;9.05;;;;;;;10.76;43.14;101935.16;5066707;28;20033;-84
2022/03/09 10:09:06;;;;;;;17.17;9.43;;;;;;;10.80;43.44;101931.22;5065047;28;20039;-82
2022/03/09 10:11:51;;;;;;;21.00;9.68;;;;;;;10.49;44.22;101948.69;5081062;28;20052;-82
2022/03/09 10:14:40;;;;;;;19.13;10.20;;;;;;;10.77;44.56;101944.25;5065838;28;20056;-83
2022/03/09 10:17:08;;;;;;;19.20;10.05;;;;;;;10.90;43.06;101939.75;5064830;28;20065;-83
2022/03/09 10:19:37;;;;;;;23.90;9.98;;;;;;;10.95;42.02;101929.41;5065268;28;20082;-83
2022/03/09 10:22:24;;;;;;;19.77;9.23;;;;;;;10.97;43.24;101930.19;5065071;28;20086;-83
2022/03/09 10:24:50;;;;;;;24.50;10.50;;;;;;;10.74;43.69;101933.47;5065137;28;20041;-84
2022/03/09 10:27:53;;;;;;;30.95;9.52;;;;;;;11.51;41.46;101942.25;5082101;28;20033;-82
2022/03/09 10:30:21;;;;;;;21.33;10.45;;;;;;;11.31;44.35;101940.81;5026901;28;20362;-83
2022/03/09 10:32:47;;;;;;;28.75;10.45;;;;;;;11.40;42.29;101941.13;5061751;28;20053;-83
2022/03/09 10:35:15;;;;;;;16.33;10.05;;;;;;;11.40;42.00;101945.72;5046671;28;20028;-82
2022/03/09 10:37:44;;;;;;;21.58;11.18;;;;;;;11.48;42.01;101945.19;5049304;28;20005;-84
2022/03/09 10:40:19;;;;;;;22.67;11.20;;;;;;;11.48;41.68;101953.44;5080368;28;20119;-84
2022/03/09 10:42:45;;;;;;;21.77;10.27;;;;;;;11.63;41.33;101937.84;5060331;28;20042;-84
2022/03/09 10:45:12;;;;;;;19.10;11.55;;;;;;;11.98;41.39;101940.13;5058102;28;20228;-83
2022/03/09 10:47:44;;;;;;;21.77;11.13;;;;;;;11.93;41.61;101943.16;5063334;28;20025;-83
2022/03/09 10:50:21;;;;;;;19.98;10.75;;;;;;;11.52;42.13;101941.28;5054027;28;20037;-83
2022/03/09 10:52:52;;;;;;;24.48;11.57;;;;;;;11.01;42.53;101933.59;5063836;28;20036;-83
2022/03/09 10:55:22;;;;;;;27.40;11.52;;;;;;;11.86;41.17;101937.19;5064432;28;20048;-83
2022/03/09 10:57:47;;;;;;;29.55;12.93;;;;;;;11.09;42.82;101936.72;5064225;28;20096;-82
2022/03/09 11:00:13;;;;;;;24.92;11.95;;;;;;;11.09;43.44;101930.38;5047459;28;20032;-83
2022/03/09 11:02:50;;;;;;;20.90;11.38;;;;;;;12.14;42.14;101929.84;5063359;28;20056;-83
2022/03/09 11:05:20;;;;;;;22.20;11.90;;;;;;;11.98;42.19;101905.31;5024477;28;20029;-83
2022/03/09 11:07:47;;;;;;;22.65;11.55;;;;;;;12.05;43.70;101911.25;5058640;28;20028;-82
2022/03/09 11:10:13;;;;;;;22.75;11.73;;;;;;;11.75;42.23;101913.19;5079628;28;20071;-82
2022/03/09 11:12:39;;;;;;;22.20;12.55;;;;;;;11.65;43.44;101922.16;5060183;28;20029;-83
2022/03/09 11:15:07;;;;;;;19.13;12.02;;;;;;;12.42;42.23;101911.47;5046223;28;20037;-83
2022/03/09 11:17:33;;;;;;;23.67;12.10;;;;;;;12.11;41.83;101905.34;5038124;28;20040;-83
2022/03/09 11:19:59;;;;;;;25.65;12.00;;;;;;;11.99;42.56;101908.97;5063224;28;20045;-83
2022/03/09 11:22:24;;;;;;;28.27;12.80;;;;;;;12.04;41.69;101918.63;5080285;28;20109;-84